createdAt,value
2022-08-17T00:00:33.268Z,33.92
2022-08-17T00:03:17.370Z,31.65
2022-08-17T00:05:49.133Z,29.88
2022-08-17T00:08:18.692Z,32.13
2022-08-17T00:10:47.271Z,31.63
2022-08-17T00:13:19.309Z,31.40
2022-08-17T00:15:46.639Z,33.40
2022-08-17T00:19:01.850Z,33.72
2022-08-17T00:21:03.323Z,34.47
2022-08-17T00:23:30.749Z,35.17
2022-08-17T00:25:57.768Z,36.47
2022-08-17T00:28:25.248Z,35.97
2022-08-17T00:30:53.829Z,36.78
2022-08-17T00:33:25.283Z,35.45
2022-08-17T00:35:53.562Z,37.20
2022-08-17T00:38:21.687Z,34.05
2022-08-17T00:40:59.027Z,37.00
2022-08-17T00:43:28.931Z,32.85
2022-08-17T00:45:56.535Z,33.88
2022-08-17T00:48:29.952Z,35.90
2022-08-17T00:51:37.221Z,30.98
2022-08-17T00:56:43.120Z,28.38
2022-08-17T00:59:11.495Z,30.85
2022-08-17T01:01:39.015Z,34.50
2022-08-17T01:04:07.438Z,33.38
2022-08-17T01:06:34.669Z,31.98
2022-08-17T01:09:03.562Z,29.60
2022-08-17T01:11:32.034Z,29.20
2022-08-17T01:13:58.933Z,29.20
2022-08-17T01:16:28.608Z,27.23
2022-08-17T01:18:59.550Z,25.10
2022-08-17T01:21:34.705Z,25.30
2022-08-17T01:24:02.459Z,26.35
2022-08-17T01:26:31.305Z,24.30
2022-08-17T01:28:58.356Z,28.23
2022-08-17T01:31:30.354Z,26.73
2022-08-17T01:34:00.255Z,27.80
2022-08-17T01:36:28.911Z,28.95
2022-08-17T01:38:55.780Z,32.50
2022-08-17T01:41:24.260Z,30.33
2022-08-17T01:44:04.413Z,32.45
2022-08-17T01:46:35.351Z,30.98
2022-08-17T01:49:06.684Z,30.60
2022-08-17T01:51:33.866Z,32.72
2022-08-17T01:54:05.558Z,30.00
2022-08-17T01:56:35.160Z,30.85
2022-08-17T01:59:02.636Z,29.55
2022-08-17T02:01:31.959Z,29.85
2022-08-17T02:04:01.360Z,28.90
2022-08-17T02:06:45.080Z,28.95
2022-08-17T02:09:22.304Z,29.00
2022-08-17T02:11:54.039Z,29.45
2022-08-17T02:14:21.619Z,31.20
2022-08-17T02:16:48.479Z,28.83
2022-08-17T02:19:17.256Z,30.73
2022-08-17T02:21:48.126Z,28.63
2022-08-17T02:24:58.306Z,31.05
2022-08-17T02:27:10.100Z,29.95
2022-08-17T02:29:37.327Z,30.35
2022-08-17T02:32:05.086Z,29.65
2022-08-17T02:34:32.543Z,32.05
2022-08-17T02:36:59.472Z,30.77
2022-08-17T02:39:26.338Z,32.08
2022-08-17T02:42:01.119Z,30.63
2022-08-17T02:44:38.873Z,32.20
2022-08-17T02:47:08.825Z,30.65
2022-08-17T02:49:35.811Z,31.13
2022-08-17T02:52:05.544Z,32.80
2022-08-17T02:54:39.323Z,31.48
2022-08-17T02:59:34.609Z,28.05
2022-08-17T03:02:03.870Z,31.58
2022-08-17T03:04:31.301Z,31.88
2022-08-17T03:07:02.837Z,32.33
2022-08-17T03:09:29.680Z,32.75
2022-08-17T03:12:08.552Z,33.85
2022-08-17T03:14:41.749Z,31.60
2022-08-17T03:17:10.139Z,32.40
2022-08-17T03:19:42.923Z,33.75
2022-08-17T03:22:36.427Z,31.08
2022-08-17T03:24:58.007Z,29.40
2022-08-17T03:27:24.878Z,30.88
2022-08-17T03:29:51.716Z,31.65
2022-08-17T03:32:20.781Z,27.85
2022-08-17T03:34:47.875Z,28.55
2022-08-17T03:37:14.896Z,30.55
2022-08-17T03:39:41.874Z,29.17
2022-08-17T03:42:31.572Z,28.10
2022-08-17T03:45:00.337Z,28.75
2022-08-17T03:47:45.986Z,29.13
2022-08-17T03:50:32.709Z,27.33
2022-08-17T03:53:19.220Z,28.20
2022-08-17T03:56:04.535Z,28.35
2022-08-17T03:58:31.453Z,27.38
2022-08-17T04:00:58.544Z,28.20
2022-08-17T04:03:25.511Z,30.30
2022-08-17T04:05:52.369Z,30.17
2022-08-17T04:08:19.244Z,30.52
2022-08-17T04:10:46.562Z,29.55
2022-08-17T04:13:14.053Z,30.95
2022-08-17T04:15:41.054Z,32.88
2022-08-17T04:18:08.015Z,34.53
2022-08-17T04:20:38.033Z,33.22
2022-08-17T04:23:10.196Z,32.38
2022-08-17T04:25:39.865Z,33.38
2022-08-17T04:28:09.027Z,31.65
2022-08-17T04:30:45.303Z,31.67
2022-08-17T04:33:24.171Z,30.35
2022-08-17T04:35:54.619Z,32.22
2022-08-17T04:38:24.570Z,34.17
2022-08-17T04:41:10.937Z,34.25
2022-08-17T04:43:39.886Z,31.20
2022-08-17T04:46:13.044Z,34.80
2022-08-17T04:48:45.815Z,32.88
2022-08-17T04:51:16.881Z,34.28
2022-08-17T04:53:49.065Z,35.15
2022-08-17T04:56:21.727Z,33.13
2022-08-17T04:58:51.469Z,31.50
2022-08-17T05:01:24.077Z,31.30
2022-08-17T05:03:52.851Z,33.55
2022-08-17T05:06:20.257Z,35.03
2022-08-17T05:08:47.179Z,32.30
2022-08-17T05:11:14.514Z,33.25
2022-08-17T05:13:41.443Z,33.38
2022-08-17T05:16:09.252Z,34.78
2022-08-17T05:18:38.848Z,33.42
2022-08-17T05:21:07.009Z,33.35
2022-08-17T05:23:41.822Z,31.63
2022-08-17T05:26:22.591Z,34.85
2022-08-17T05:28:57.220Z,35.30
2022-08-17T05:31:27.241Z,33.58
2022-08-17T05:33:54.129Z,36.28
2022-08-17T05:36:37.919Z,36.45
2022-08-17T05:39:08.137Z,33.42
2022-08-17T05:41:40.614Z,35.92
2022-08-17T05:44:07.566Z,36.75
2022-08-17T05:46:39.634Z,28.45
2022-08-17T05:49:08.377Z,28.25
2022-08-17T05:51:41.245Z,23.95
2022-08-17T05:54:26.817Z,24.58
2022-08-17T05:57:03.104Z,22.13
2022-08-17T05:59:30.611Z,24.90
2022-08-17T06:02:09.495Z,23.65
2022-08-17T06:05:00.948Z,25.70
2022-08-17T06:07:46.194Z,29.60
2022-08-17T06:10:35.829Z,30.60
2022-08-17T06:13:23.365Z,28.98
2022-08-17T06:16:04.768Z,31.33
2022-08-17T06:19:02.505Z,26.40
2022-08-17T06:21:35.024Z,27.40
2022-08-17T06:24:25.266Z,29.13
2022-08-17T06:26:53.988Z,29.02
2022-08-17T06:29:23.911Z,29.48
2022-08-17T06:31:51.937Z,30.30
2022-08-17T06:34:21.755Z,31.02
2022-08-17T06:37:19.036Z,31.05
2022-08-17T06:40:04.350Z,32.47
2022-08-17T06:42:55.018Z,29.17
2022-08-17T06:45:37.833Z,29.23
2022-08-17T06:48:09.318Z,27.48
2022-08-17T06:50:47.114Z,29.67
2022-08-17T06:53:26.349Z,31.85
2022-08-17T06:56:23.674Z,29.13
2022-08-17T06:58:50.854Z,25.33
2022-08-17T07:01:24.971Z,25.70
2022-08-17T07:04:23.598Z,26.33
2022-08-17T07:06:50.420Z,24.90
2022-08-17T07:09:37.909Z,25.48
2022-08-17T07:12:19.509Z,24.50
2022-08-17T07:14:52.876Z,28.05
2022-08-17T07:17:22.031Z,25.75
2022-08-17T07:20:15.025Z,25.70
2022-08-17T07:22:59.421Z,26.15
2022-08-17T07:25:27.592Z,27.33
2022-08-17T07:28:00.326Z,25.48
2022-08-17T07:30:45.507Z,24.88
2022-08-17T07:33:20.366Z,26.23
2022-08-17T07:35:48.512Z,26.98
2022-08-17T07:38:25.240Z,26.90
2022-08-17T07:41:02.842Z,27.42
2022-08-17T07:43:38.062Z,27.80
2022-08-17T07:46:37.800Z,25.77
2022-08-17T07:49:07.622Z,24.75
2022-08-17T07:51:39.808Z,25.52
2022-08-17T07:54:15.613Z,24.13
2022-08-17T07:56:49.695Z,25.00
2022-08-17T07:59:23.432Z,25.20
2022-08-17T08:01:58.096Z,24.40
2022-08-17T08:07:25.692Z,20.85
2022-08-17T08:10:15.761Z,21.58
2022-08-17T08:12:42.600Z,20.55
2022-08-17T08:15:25.715Z,22.67
2022-08-17T08:18:02.094Z,21.95
2022-08-17T08:20:53.217Z,23.80
2022-08-17T08:23:33.505Z,22.05
2022-08-17T08:26:00.325Z,22.40
2022-08-17T08:28:36.408Z,22.48
2022-08-17T08:31:25.327Z,21.98
2022-08-17T08:33:59.555Z,23.70
2022-08-17T08:36:57.018Z,24.95
2022-08-17T08:39:29.949Z,22.80
2022-08-17T08:42:13.130Z,23.25
2022-08-17T08:45:08.377Z,25.67
2022-08-17T08:48:46.160Z,24.92
2022-08-17T08:51:37.242Z,24.85
2022-08-17T08:54:33.587Z,22.88
2022-08-17T08:57:26.790Z,24.52
2022-08-17T09:00:17.496Z,26.10
2022-08-17T09:02:56.480Z,27.85
2022-08-17T09:05:36.996Z,27.58
2022-08-17T09:08:29.903Z,26.95
2022-08-17T09:11:02.492Z,24.45
2022-08-17T09:14:28.210Z,26.92
2022-08-17T09:17:04.608Z,25.23
2022-08-17T09:19:48.390Z,27.50
2022-08-17T09:22:35.874Z,26.85
2022-08-17T09:25:12.629Z,26.70
2022-08-17T09:28:00.946Z,28.90
2022-08-17T09:30:37.900Z,26.33
2022-08-17T09:33:11.499Z,25.83
2022-08-17T09:35:53.821Z,25.77
2022-08-17T09:38:31.761Z,26.85
2022-08-17T09:41:31.277Z,25.98
2022-08-17T09:44:22.784Z,26.70
2022-08-17T09:47:11.104Z,24.85
2022-08-17T09:49:51.439Z,24.50
2022-08-17T09:52:25.126Z,26.45
2022-08-17T09:54:54.822Z,26.10
2022-08-17T09:57:30.220Z,27.60
2022-08-17T10:00:08.324Z,25.80
2022-08-17T10:03:16.410Z,26.17
2022-08-17T10:06:02.702Z,25.17
2022-08-17T10:08:54.109Z,24.10
2022-08-17T10:12:01.065Z,26.92
2022-08-17T10:14:44.302Z,25.02
2022-08-17T10:17:41.719Z,25.95
2022-08-17T10:20:28.367Z,23.65
2022-08-17T10:23:32.367Z,24.42
2022-08-17T10:26:20.562Z,25.83
2022-08-17T10:28:47.888Z,24.83
2022-08-17T10:31:45.662Z,24.70
2022-08-17T10:34:50.463Z,23.55
2022-08-17T10:37:20.267Z,24.10
2022-08-17T10:40:02.641Z,25.92
2022-08-17T10:42:36.894Z,26.90
2022-08-17T10:45:35.442Z,25.38
2022-08-17T10:48:38.321Z,23.48
2022-08-17T10:51:12.831Z,24.77
2022-08-17T10:53:43.492Z,25.93
2022-08-17T10:56:13.313Z,25.40
2022-08-17T10:58:54.869Z,25.58
2022-08-17T11:01:44.440Z,26.20
2022-08-17T11:04:30.159Z,25.35
2022-08-17T11:07:30.600Z,25.38
2022-08-17T11:10:15.406Z,25.83
2022-08-17T11:13:11.120Z,27.15
2022-08-17T11:15:43.797Z,27.80
2022-08-17T11:18:20.485Z,26.88
2022-08-17T11:21:20.499Z,28.17
2022-08-17T11:24:11.683Z,26.85
2022-08-17T11:26:46.342Z,27.02
2022-08-17T11:29:24.779Z,25.42
2022-08-17T11:32:13.070Z,28.08
2022-08-17T11:34:43.525Z,26.35
2022-08-17T11:37:15.751Z,26.17
2022-08-17T11:39:45.677Z,27.40
2022-08-17T11:42:25.618Z,28.65
2022-08-17T11:45:07.455Z,28.90
2022-08-17T11:48:27.932Z,29.00
2022-08-17T11:51:28.465Z,31.73
2022-08-17T11:54:14.749Z,30.45
2022-08-17T11:56:50.800Z,22.77
2022-08-17T11:59:44.990Z,20.35
2022-08-17T12:02:29.931Z,15.15
2022-08-17T12:05:27.458Z,14.45
2022-08-17T12:08:16.555Z,16.25
2022-08-17T12:11:55.661Z,16.77
2022-08-17T12:14:19.208Z,14.13
2022-08-17T12:16:58.712Z,14.48
2022-08-17T12:19:27.755Z,14.20
2022-08-17T12:22:02.328Z,13.43
2022-08-17T12:24:45.403Z,16.05
2022-08-17T12:27:19.586Z,15.73
2022-08-17T12:30:12.239Z,16.20
2022-08-17T12:32:40.756Z,15.07
2022-08-17T12:35:25.355Z,13.77
2022-08-17T12:37:52.883Z,13.32
2022-08-17T12:40:24.229Z,15.05
2022-08-17T12:42:57.832Z,15.88
2022-08-17T12:45:39.798Z,16.15
2022-08-17T12:48:13.240Z,16.83
2022-08-17T12:50:45.144Z,16.40
2022-08-17T12:53:17.601Z,16.17
2022-08-17T12:55:45.426Z,16.77
2022-08-17T12:58:17.536Z,18.95
2022-08-17T13:01:01.925Z,17.80
2022-08-17T13:03:36.302Z,19.27
2022-08-17T13:06:09.620Z,20.13
2022-08-17T13:08:43.201Z,20.98
2022-08-17T13:11:18.634Z,20.63
2022-08-17T13:16:17.388Z,17.52
2022-08-17T13:18:48.694Z,20.00
2022-08-17T13:21:27.014Z,20.30
2022-08-17T13:24:01.463Z,18.90
2022-08-17T13:26:42.186Z,17.77
2022-08-17T13:29:23.375Z,14.55
2022-08-17T13:31:56.644Z,12.82
2022-08-17T13:35:12.090Z,12.10
2022-08-17T13:37:32.906Z,13.88
2022-08-17T13:40:07.955Z,19.17
2022-08-17T13:42:52.296Z,17.02
2022-08-17T13:48:14.577Z,19.85
2022-08-17T13:50:54.823Z,18.77
2022-08-17T13:53:26.579Z,20.50
2022-08-17T13:56:07.420Z,21.27
2022-08-17T13:59:02.804Z,18.63
2022-08-17T14:01:32.827Z,18.02
2022-08-17T14:04:03.092Z,13.57
2022-08-17T14:06:51.379Z,18.45
2022-08-17T14:09:24.247Z,18.95
2022-08-17T14:11:54.210Z,20.92
2022-08-17T14:14:23.354Z,18.88
2022-08-17T14:16:54.240Z,18.10
2022-08-17T14:19:24.485Z,16.30
2022-08-17T14:21:51.765Z,15.30
2022-08-17T14:24:19.872Z,16.00
2022-08-17T14:26:46.768Z,15.77
2022-08-17T14:29:15.530Z,16.67
2022-08-17T14:31:42.909Z,16.08
2022-08-17T14:34:20.787Z,15.85
2022-08-17T14:36:48.461Z,16.58
2022-08-17T14:39:17.495Z,16.90
2022-08-17T14:41:44.954Z,18.35
2022-08-17T14:44:12.657Z,19.38
2022-08-17T14:46:41.078Z,22.05
2022-08-17T14:49:13.060Z,18.38
2022-08-17T14:51:44.003Z,19.65
2022-08-17T14:54:28.774Z,22.58
2022-08-17T14:57:22.440Z,21.65
2022-08-17T14:59:47.153Z,23.30
2022-08-17T15:02:14.012Z,19.50
2022-08-17T15:04:45.477Z,20.85
2022-08-17T15:07:12.648Z,19.92
2022-08-17T15:09:39.686Z,18.60
2022-08-17T15:12:07.271Z,19.73
2022-08-17T15:14:36.973Z,18.55
2022-08-17T15:17:04.283Z,16.85
2022-08-17T15:19:31.143Z,16.40
2022-08-17T15:21:58.005Z,16.67
2022-08-17T15:24:24.854Z,18.02
2022-08-17T15:26:51.720Z,17.55
2022-08-17T15:29:18.588Z,17.23
2022-08-17T15:31:45.472Z,21.10
2022-08-17T15:34:12.348Z,20.55
2022-08-17T15:36:41.406Z,18.63
2022-08-17T15:39:19.601Z,17.58
2022-08-17T15:41:47.396Z,12.20
2022-08-17T15:44:32.361Z,13.10
2022-08-17T15:46:59.563Z,12.63
2022-08-17T15:49:26.380Z,13.88
2022-08-17T15:51:53.753Z,13.25
2022-08-17T15:54:22.707Z,16.48
2022-08-17T15:56:50.793Z,16.83
2022-08-17T15:59:17.924Z,17.20
2022-08-17T16:03:13.203Z,21.05
2022-08-17T16:04:32.100Z,18.42
2022-08-17T16:07:00.026Z,20.05
2022-08-17T16:09:27.607Z,18.60
2022-08-17T16:11:56.284Z,16.90
2022-08-17T16:14:30.326Z,16.83
2022-08-17T16:17:03.215Z,15.60
2022-08-17T16:19:30.125Z,15.98
2022-08-17T16:21:57.029Z,17.17
2022-08-17T16:24:23.873Z,16.40
2022-08-17T16:26:50.894Z,16.52
2022-08-17T16:29:17.981Z,16.00
2022-08-17T16:31:44.854Z,15.82
2022-08-17T16:34:16.934Z,16.73
2022-08-17T16:36:55.507Z,14.75
2022-08-17T16:39:29.200Z,16.10
2022-08-17T16:41:57.592Z,15.02
2022-08-17T16:44:27.556Z,15.90
2022-08-17T16:46:54.442Z,17.00
2022-08-17T16:49:36.156Z,14.88
2022-08-17T16:52:05.986Z,9.95
2022-08-17T16:54:35.629Z,9.38
2022-08-17T16:57:05.245Z,12.20
2022-08-17T16:59:39.618Z,15.65
2022-08-17T17:02:10.740Z,16.40
2022-08-17T17:04:49.308Z,14.85
2022-08-17T17:07:50.432Z,13.93
2022-08-17T17:10:22.373Z,14.02
2022-08-17T17:13:02.507Z,12.75
2022-08-17T17:15:45.342Z,13.50
2022-08-17T17:18:14.856Z,15.15
2022-08-17T17:20:53.599Z,15.20
2022-08-17T17:23:44.713Z,15.13
2022-08-17T17:26:29.328Z,16.42
2022-08-17T17:29:18.462Z,15.48
2022-08-17T17:32:04.578Z,14.75
2022-08-17T17:34:34.668Z,16.85
2022-08-17T17:37:07.293Z,17.98
2022-08-17T17:39:37.088Z,17.40
2022-08-17T17:42:08.789Z,18.85
2022-08-17T17:44:42.467Z,16.52
2022-08-17T17:47:12.288Z,13.98
2022-08-17T17:49:46.751Z,15.00
2022-08-17T17:52:36.389Z,11.70
2022-08-17T17:55:24.388Z,16.45
2022-08-17T17:58:01.151Z,16.80
2022-08-17T18:00:44.600Z,18.33
2022-08-17T18:03:46.852Z,16.13
2022-08-17T18:06:20.002Z,14.52
2022-08-17T18:08:55.257Z,15.85
2022-08-17T18:11:35.125Z,17.83
2022-08-17T18:14:17.299Z,19.58
2022-08-17T18:16:46.475Z,19.92
2022-08-17T18:19:20.055Z,20.55
2022-08-17T18:22:14.450Z,20.45
2022-08-17T18:24:44.649Z,19.60
2022-08-17T18:27:49.641Z,19.35
2022-08-17T18:30:20.054Z,19.70
2022-08-17T18:32:47.272Z,23.30
2022-08-17T18:35:14.415Z,26.42
2022-08-17T18:37:50.568Z,27.13
2022-08-17T18:40:17.900Z,29.02
2022-08-17T18:42:48.583Z,33.60
2022-08-17T18:45:51.195Z,36.90
2022-08-17T18:48:33.628Z,35.55
2022-08-17T18:51:42.169Z,37.72
2022-08-17T18:54:14.395Z,34.58
2022-08-17T18:56:56.599Z,34.83
2022-08-17T18:59:23.387Z,29.00
2022-08-17T19:02:27.331Z,26.45
2022-08-17T19:05:27.844Z,28.15
2022-08-17T19:08:13.783Z,30.33
2022-08-17T19:10:46.295Z,34.33
2022-08-17T19:13:37.445Z,36.63
2022-08-17T19:16:40.765Z,37.63
2022-08-17T19:19:17.504Z,36.30
2022-08-17T19:21:53.377Z,35.20
2022-08-17T19:24:26.576Z,30.48
2022-08-17T19:27:26.186Z,30.58
2022-08-17T19:30:08.532Z,26.48
2022-08-17T19:32:36.229Z,23.88
2022-08-17T19:35:06.237Z,20.10
2022-08-17T19:37:51.670Z,19.83
2022-08-17T19:40:55.273Z,20.15
2022-08-17T19:43:38.077Z,18.75
2022-08-17T19:46:26.082Z,19.63
2022-08-17T19:49:21.426Z,20.35
2022-08-17T19:52:06.793Z,19.73
2022-08-17T19:54:44.847Z,20.08
2022-08-17T19:57:37.040Z,21.38
2022-08-17T20:00:31.372Z,19.92
2022-08-17T20:03:16.760Z,19.27
2022-08-17T20:06:15.077Z,19.48
2022-08-17T20:08:49.825Z,20.55
2022-08-17T20:11:24.909Z,16.42
2022-08-17T20:14:09.797Z,9.98
2022-08-17T20:16:36.685Z,11.40
2022-08-17T20:19:11.572Z,14.40
2022-08-17T20:21:38.383Z,13.10
2022-08-17T20:24:17.409Z,16.98
2022-08-17T20:26:58.532Z,17.25
2022-08-17T20:30:00.720Z,18.75
2022-08-17T20:32:30.261Z,17.52
2022-08-17T20:35:19.789Z,19.50
2022-08-17T20:37:57.531Z,19.52
2022-08-17T20:40:28.813Z,18.55
2022-08-17T20:42:57.329Z,19.05
2022-08-17T20:45:24.420Z,18.60
2022-08-17T20:48:23.987Z,20.02
2022-08-17T20:50:51.597Z,18.75
2022-08-17T20:53:53.685Z,17.35
2022-08-17T20:56:46.557Z,17.52
2022-08-17T20:59:30.513Z,18.88
2022-08-17T21:02:12.467Z,18.60
2022-08-17T21:05:00.709Z,19.27
2022-08-17T21:07:43.000Z,20.60
2022-08-17T21:10:25.882Z,20.58
2022-08-17T21:13:04.745Z,20.17
2022-08-17T21:15:50.071Z,17.90
2022-08-17T21:18:31.350Z,20.17
2022-08-17T21:21:17.415Z,21.45
2022-08-17T21:24:06.193Z,20.10
2022-08-17T21:26:59.954Z,21.05
2022-08-17T21:29:30.831Z,21.23
2022-08-17T21:32:00.597Z,20.65
2022-08-17T21:34:39.517Z,18.70
2022-08-17T21:37:26.118Z,19.42
2022-08-17T21:39:56.383Z,22.33
2022-08-17T21:42:29.669Z,20.27
2022-08-17T21:45:07.981Z,20.60
2022-08-17T21:47:35.098Z,19.73
2022-08-17T21:50:24.146Z,19.63
2022-08-17T21:52:54.181Z,18.95
2022-08-17T21:55:28.339Z,18.90
2022-08-17T21:58:14.655Z,17.80
2022-08-17T22:00:45.951Z,18.55
2022-08-17T22:03:24.152Z,17.98
2022-08-17T22:05:51.651Z,18.00
2022-08-17T22:08:23.191Z,20.38
2022-08-17T22:10:51.764Z,18.48
2022-08-17T22:13:18.577Z,18.45
2022-08-17T22:15:49.668Z,20.13
2022-08-17T22:18:28.921Z,18.45
2022-08-17T22:20:58.097Z,19.42
2022-08-17T22:24:06.369Z,19.88
2022-08-17T22:27:07.024Z,19.90
2022-08-17T22:29:42.883Z,17.15
2022-08-17T22:32:10.309Z,20.55
2022-08-17T22:34:38.571Z,19.48
2022-08-17T22:37:27.962Z,19.17
2022-08-17T22:39:59.067Z,19.88
2022-08-17T22:42:26.197Z,19.40
2022-08-17T22:44:53.956Z,17.80
2022-08-17T22:47:39.545Z,18.70
2022-08-17T22:50:14.899Z,17.50
2022-08-17T22:55:51.977Z,16.63
2022-08-17T22:58:41.891Z,15.95
2022-08-17T23:01:32.575Z,15.27
2022-08-17T23:04:02.078Z,15.73
2022-08-17T23:06:29.922Z,15.93
2022-08-17T23:08:57.770Z,16.55
2022-08-17T23:11:42.935Z,15.65
2022-08-17T23:14:15.986Z,13.82
2022-08-17T23:16:43.109Z,16.08
2022-08-17T23:19:11.545Z,15.60
2022-08-17T23:21:38.809Z,15.32
2022-08-17T23:24:07.612Z,15.80
2022-08-17T23:26:38.150Z,17.05
2022-08-17T23:29:06.766Z,17.77
2022-08-17T23:31:36.236Z,16.67
2022-08-17T23:34:11.622Z,18.00
2022-08-17T23:39:06.939Z,13.05
2022-08-17T23:41:38.650Z,13.23
2022-08-17T23:44:06.505Z,13.88
2022-08-17T23:46:34.818Z,13.48
2022-08-17T23:49:01.875Z,14.75
2022-08-17T23:51:34.691Z,13.38
2022-08-17T23:54:12.585Z,12.18
2022-08-17T23:56:46.800Z,11.27
2022-08-17T23:59:19.688Z,11.52
